sensor_id;sensor_type;location;lat;lon;timestamp;pressure;altitude;pressure_sealevel;temperature;humidity
20115;BME280;10218;42.874;25.320;2023-07-30T00:00:32;96904.75;;;19.14;100.00
20115;BME280;10218;42.874;25.320;2023-07-30T00:03:00;96914.50;;;19.15;100.00
20115;BME280;10218;42.874;25.320;2023-07-30T00:05:27;96906.03;;;19.12;100.00
20115;BME280;10218;42.874;25.320;2023-07-30T00:07:54;96903.31;;;19.12;100.00
20115;BME280;10218;42.874;25.320;2023-07-30T00:10:22;96897.16;;;18.93;100.00
20115;BME280;10218;42.874;25.320;2023-07-30T00:12:49;96900.31;;;18.90;100.00
20115;BME280;10218;42.874;25.320;2023-07-30T00:15:16;96899.16;;;18.98;100.00
20115;BME280;10218;42.874;25.320;2023-07-30T00:17:43;96898.91;;;18.88;100.00
20115;BME280;10218;42.874;25.320;2023-07-30T00:20:11;96911.06;;;18.97;100.00
20115;BME280;10218;42.874;25.320;2023-07-30T00:22:38;96900.31;;;18.90;100.00
20115;BME280;10218;42.874;25.320;2023-07-30T00:25:05;96903.97;;;18.84;100.00
20115;BME280;10218;42.874;25.320;2023-07-30T00:27:32;96895.72;;;18.79;100.00
20115;BME280;10218;42.874;25.320;2023-07-30T00:29:59;96908.63;;;18.77;100.00
20115;BME280;10218;42.874;25.320;2023-07-30T00:32:26;96896.72;;;18.66;100.00
20115;BME280;10218;42.874;25.320;2023-07-30T00:34:54;96900.19;;;18.85;100.00
20115;BME280;10218;42.874;25.320;2023-07-30T00:37:21;96902.75;;;18.80;100.00
20115;BME280;10218;42.874;25.320;2023-07-30T00:39:49;96908.22;;;18.62;100.00
20115;BME280;10218;42.874;25.320;2023-07-30T00:42:16;96904.69;;;18.61;100.00
20115;BME280;10218;42.874;25.320;2023-07-30T00:44:44;96891.37;;;18.60;100.00
20115;BME280;10218;42.874;25.320;2023-07-30T00:47:12;96901.66;;;18.51;100.00
20115;BME280;10218;42.874;25.320;2023-07-30T00:49:39;96901.38;;;18.59;100.00
20115;BME280;10218;42.874;25.320;2023-07-30T00:52:07;96895.31;;;18.64;100.00
20115;BME280;10218;42.874;25.320;2023-07-30T00:54:35;96901.75;;;18.63;100.00
20115;BME280;10218;42.874;25.320;2023-07-30T00:57:02;96906.47;;;18.67;100.00
20115;BME280;10218;42.874;25.320;2023-07-30T00:59:29;96889.41;;;18.67;100.00
20115;BME280;10218;42.874;25.320;2023-07-30T01:01:57;96891.06;;;18.68;100.00
20115;BME280;10218;42.874;25.320;2023-07-30T01:04:25;96899.34;;;18.85;100.00
20115;BME280;10218;42.874;25.320;2023-07-30T01:06:52;96901.91;;;18.79;100.00
20115;BME280;10218;42.874;25.320;2023-07-30T01:09:19;96900.63;;;18.52;100.00
20115;BME280;10218;42.874;25.320;2023-07-30T01:11:46;96891.84;;;18.57;100.00
20115;BME280;10218;42.874;25.320;2023-07-30T01:14:14;96886.13;;;18.47;100.00
20115;BME280;10218;42.874;25.320;2023-07-30T01:16:42;96891.53;;;18.47;100.00
20115;BME280;10218;42.874;25.320;2023-07-30T01:19:09;96898.13;;;18.51;100.00
20115;BME280;10218;42.874;25.320;2023-07-30T01:21:37;96891.53;;;18.47;100.00
20115;BME280;10218;42.874;25.320;2023-07-30T01:24:04;96888.53;;;18.55;100.00
20115;BME280;10218;42.874;25.320;2023-07-30T01:26:39;96884.28;;;18.77;100.00
20115;BME280;10218;42.874;25.320;2023-07-30T01:29:11;96876.50;;;18.80;100.00
20115;BME280;10218;42.874;25.320;2023-07-30T01:31:43;96886.72;;;18.67;100.00
20115;BME280;10218;42.874;25.320;2023-07-30T01:34:13;96882.19;;;18.79;100.00
20115;BME280;10218;42.874;25.320;2023-07-30T01:36:41;96880.75;;;18.76;100.00
20115;BME280;10218;42.874;25.320;2023-07-30T01:39:10;96878.13;;;18.70;100.00
20115;BME280;10218;42.874;25.320;2023-07-30T01:41:38;96880.53;;;18.78;100.00
20115;BME280;10218;42.874;25.320;2023-07-30T01:44:05;96881.91;;;18.69;100.00
20115;BME280;10218;42.874;25.320;2023-07-30T01:46:32;96882.22;;;18.61;100.00
20115;BME280;10218;42.874;25.320;2023-07-30T01:48:59;96878.69;;;18.60;100.00
20115;BME280;10218;42.874;25.320;2023-07-30T01:51:26;96869.75;;;18.42;100.00
20115;BME280;10218;42.874;25.320;2023-07-30T01:53:53;96880.72;;;18.47;100.00
20115;BME280;10218;42.874;25.320;2023-07-30T01:56:20;96877.31;;;18.51;100.00
20115;BME280;10218;42.874;25.320;2023-07-30T01:58:48;96881.91;;;18.69;100.00
20115;BME280;10218;42.874;25.320;2023-07-30T02:01:15;96875.75;;;18.62;100.00
20115;BME280;10218;42.874;25.320;2023-07-30T02:03:43;96872.09;;;18.56;100.00
20115;BME280;10218;42.874;25.320;2023-07-30T02:06:10;96877.28;;;18.58;100.00
20115;BME280;10218;42.874;25.320;2023-07-30T02:08:38;96875.09;;;18.78;100.00
20115;BME280;10218;42.874;25.320;2023-07-30T02:11:05;96881.84;;;18.87;100.00
20115;BME280;10218;42.874;25.320;2023-07-30T02:13:32;96874.31;;;18.89;100.00
20115;BME280;10218;42.874;25.320;2023-07-30T02:15:59;96874.63;;;18.81;100.00
20115;BME280;10218;42.874;25.320;2023-07-30T02:18:27;96879.19;;;18.69;100.00
20115;BME280;10218;42.874;25.320;2023-07-30T02:20:54;96880.34;;;18.43;100.00
20115;BME280;10218;42.874;25.320;2023-07-30T02:23:21;96881.31;;;18.49;100.00
20115;BME280;10218;42.874;25.320;2023-07-30T02:25:48;96878.38;;;18.50;100.00
20115;BME280;10218;42.874;25.320;2023-07-30T02:28:15;96881.06;;;18.50;100.00
20115;BME280;10218;42.874;25.320;2023-07-30T02:30:42;96882.72;;;18.51;100.00
20115;BME280;10218;42.874;25.320;2023-07-30T02:33:09;96877.03;;;18.59;100.00
20115;BME280;10218;42.874;25.320;2023-07-30T02:35:36;96879.19;;;18.51;100.00
20115;BME280;10218;42.874;25.320;2023-07-30T02:38:03;96875.22;;;18.53;100.00
20115;BME280;10218;42.874;25.320;2023-07-30T02:40:31;96888.75;;;18.53;100.00
20115;BME280;10218;42.874;25.320;2023-07-30T02:42:58;96887.31;;;18.51;100.00
20115;BME280;10218;42.874;25.320;2023-07-30T02:45:25;96893.56;;;18.51;100.00
20115;BME280;10218;42.874;25.320;2023-07-30T02:47:53;96900.25;;;18.49;100.00
20115;BME280;10218;42.874;25.320;2023-07-30T02:50:20;96894.72;;;18.44;100.00
20115;BME280;10218;42.874;25.320;2023-07-30T02:52:47;96898.22;;;18.44;100.00
20115;BME280;10218;42.874;25.320;2023-07-30T02:55:14;96891.41;;;18.05;100.00
20115;BME280;10218;42.874;25.320;2023-07-30T02:57:43;96894.13;;;18.23;100.00
20115;BME280;10218;42.874;25.320;2023-07-30T03:00:10;96895.19;;;18.22;100.00
20115;BME280;10218;42.874;25.320;2023-07-30T03:02:38;96897.88;;;18.04;100.00
20115;BME280;10218;42.874;25.320;2023-07-30T03:05:05;96896.97;;;18.10;100.00
20115;BME280;10218;42.874;25.320;2023-07-30T03:07:32;96903.16;;;18.17;100.00
20115;BME280;10218;42.874;25.320;2023-07-30T03:09:59;96906.13;;;18.27;100.00
20115;BME280;10218;42.874;25.320;2023-07-30T03:12:26;96901.94;;;18.31;100.00
20115;BME280;10218;42.874;25.320;2023-07-30T03:14:54;96907.63;;;18.05;100.00
20115;BME280;10218;42.874;25.320;2023-07-30T03:17:21;96910.72;;;18.09;100.00
20115;BME280;10218;42.874;25.320;2023-07-30T03:19:48;96920.38;;;17.98;100.00
20115;BME280;10218;42.874;25.320;2023-07-30T03:22:15;96916.91;;;17.73;100.00
20115;BME280;10218;42.874;25.320;2023-07-30T03:24:46;96912.66;;;17.83;100.00
20115;BME280;10218;42.874;25.320;2023-07-30T03:27:13;96914.47;;;17.89;100.00
20115;BME280;10218;42.874;25.320;2023-07-30T03:29:40;96911.97;;;17.88;100.00
20115;BME280;10218;42.874;25.320;2023-07-30T03:32:08;96920.47;;;17.91;100.00
20115;BME280;10218;42.874;25.320;2023-07-30T03:34:36;96913.06;;;17.87;100.00
20115;BME280;10218;42.874;25.320;2023-07-30T03:37:03;96918.81;;;17.90;100.00
20115;BME280;10218;42.874;25.320;2023-07-30T03:39:30;96913.81;;;18.12;100.00
20115;BME280;10218;42.874;25.320;2023-07-30T03:41:57;96907.78;;;18.10;100.00
20115;BME280;10218;42.874;25.320;2023-07-30T03:44:24;96909.28;;;18.24;100.00
20115;BME280;10218;42.874;25.320;2023-07-30T03:46:51;96908.16;;;18.14;100.00
20115;BME280;10218;42.874;25.320;2023-07-30T03:49:19;96920.03;;;18.31;100.00
20115;BME280;10218;42.874;25.320;2023-07-30T03:51:47;96915.16;;;18.21;100.00
20115;BME280;10218;42.874;25.320;2023-07-30T03:54:15;96910.94;;;18.25;100.00
20115;BME280;10218;42.874;25.320;2023-07-30T03:56:42;96919.06;;;18.25;100.00
20115;BME280;10218;42.874;25.320;2023-07-30T03:59:09;96917.53;;;18.29;100.00
20115;BME280;10218;42.874;25.320;2023-07-30T04:01:36;96918.00;;;18.26;100.00
20115;BME280;10218;42.874;25.320;2023-07-30T04:04:04;96932.34;;;18.27;100.00
20115;BME280;10218;42.874;25.320;2023-07-30T04:06:31;96918.00;;;18.26;100.00
20115;BME280;10218;42.874;25.320;2023-07-30T04:08:58;96927.03;;;18.38;100.00
20115;BME280;10218;42.874;25.320;2023-07-30T04:11:26;96932.78;;;18.42;100.00
20115;BME280;10218;42.874;25.320;2023-07-30T04:13:53;96914.84;;;18.29;100.00
20115;BME280;10218;42.874;25.320;2023-07-30T04:16:20;96924.31;;;18.38;100.00
20115;BME280;10218;42.874;25.320;2023-07-30T04:18:47;96913.19;;;18.47;100.00
20115;BME280;10218;42.874;25.320;2023-07-30T04:21:14;96929.41;;;18.65;100.00
20115;BME280;10218;42.874;25.320;2023-07-30T04:23:42;96936.31;;;18.91;100.00
20115;BME280;10218;42.874;25.320;2023-07-30T04:26:09;96925.88;;;18.94;100.00
20115;BME280;10218;42.874;25.320;2023-07-30T04:28:36;96939.34;;;19.12;100.00
20115;BME280;10218;42.874;25.320;2023-07-30T04:31:04;96934.09;;;19.29;100.00
20115;BME280;10218;42.874;25.320;2023-07-30T04:33:31;96936.97;;;19.46;100.00
20115;BME280;10218;42.874;25.320;2023-07-30T04:35:58;96942.16;;;19.47;100.00
20115;BME280;10218;42.874;25.320;2023-07-30T04:38:25;96934.06;;;19.59;100.00
20115;BME280;10218;42.874;25.320;2023-07-30T04:40:53;96926.50;;;19.73;100.00
20115;BME280;10218;42.874;25.320;2023-07-30T04:43:20;96934.41;;;19.97;100.00
20115;BME280;10218;42.874;25.320;2023-07-30T04:45:49;96941.12;;;19.83;100.00
20115;BME280;10218;42.874;25.320;2023-07-30T04:48:16;96933.94;;;20.00;100.00
20115;BME280;10218;42.874;25.320;2023-07-30T04:50:43;96942.91;;;19.89;100.00
20115;BME280;10218;42.874;25.320;2023-07-30T04:53:10;96937.22;;;20.02;100.00
20115;BME280;10218;42.874;25.320;2023-07-30T04:55:37;96941.72;;;19.74;100.00
20115;BME280;10218;42.874;25.320;2023-07-30T04:58:04;96946.31;;;19.50;100.00
20115;BME280;10218;42.874;25.320;2023-07-30T05:00:31;96931.69;;;19.74;100.00
20115;BME280;10218;42.874;25.320;2023-07-30T05:02:59;96939.13;;;19.90;100.00
20115;BME280;10218;42.874;25.320;2023-07-30T05:05:26;96936.78;;;19.94;100.00
20115;BME280;10218;42.874;25.320;2023-07-30T05:07:53;96929.41;;;20.18;100.00
20115;BME280;10218;42.874;25.320;2023-07-30T05:10:20;96928.50;;;20.35;100.00
20115;BME280;10218;42.874;25.320;2023-07-30T05:12:47;96934.78;;;20.64;100.00
20115;BME280;10218;42.874;25.320;2023-07-30T05:15:14;96935.84;;;20.63;100.00
20115;BME280;10218;42.874;25.320;2023-07-30T05:17:41;96928.19;;;20.88;100.00
20115;BME280;10218;42.874;25.320;2023-07-30T05:20:09;96931.09;;;20.70;100.00
20115;BME280;10218;42.874;25.320;2023-07-30T05:22:36;96923.13;;;20.92;100.00
20115;BME280;10218;42.874;25.320;2023-07-30T05:25:03;96928.38;;;20.99;100.00
20115;BME280;10218;42.874;25.320;2023-07-30T05:27:31;96925.50;;;21.50;100.00
20115;BME280;10218;42.874;25.320;2023-07-30T05:29:58;96923.34;;;21.86;100.00
20115;BME280;10218;42.874;25.320;2023-07-30T05:32:26;96934.16;;;22.14;100.00
20115;BME280;10218;42.874;25.320;2023-07-30T05:34:53;96928.00;;;22.45;100.00
20115;BME280;10218;42.874;25.320;2023-07-30T05:37:20;96922.97;;;22.76;100.00
20115;BME280;10218;42.874;25.320;2023-07-30T05:39:47;96927.72;;;22.85;100.00
20115;BME280;10218;42.874;25.320;2023-07-30T05:42:14;96925.38;;;22.94;100.00
20115;BME280;10218;42.874;25.320;2023-07-30T05:44:41;96922.81;;;23.09;100.00
20115;BME280;10218;42.874;25.320;2023-07-30T05:47:08;96928.13;;;23.53;100.00
20115;BME280;10218;42.874;25.320;2023-07-30T05:49:35;96936.97;;;23.65;100.00
20115;BME280;10218;42.874;25.320;2023-07-30T05:52:03;96934.28;;;23.70;100.00
20115;BME280;10218;42.874;25.320;2023-07-30T05:54:30;96937.06;;;23.75;100.00
20115;BME280;10218;42.874;25.320;2023-07-30T05:56:57;96925.31;;;24.11;100.00
20115;BME280;10218;42.874;25.320;2023-07-30T05:59:24;96930.16;;;24.04;100.00
20115;BME280;10218;42.874;25.320;2023-07-30T06:01:51;96928.75;;;24.39;100.00
20115;BME280;10218;42.874;25.320;2023-07-30T06:04:19;96930.19;;;24.51;100.00
20115;BME280;10218;42.874;25.320;2023-07-30T06:06:46;96927.78;;;24.65;100.00
20115;BME280;10218;42.874;25.320;2023-07-30T06:09:13;96927.31;;;24.78;100.00
20115;BME280;10218;42.874;25.320;2023-07-30T06:11:40;96926.91;;;25.32;100.00
20115;BME280;10218;42.874;25.320;2023-07-30T06:14:07;96924.44;;;25.35;100.00
20115;BME280;10218;42.874;25.320;2023-07-30T06:16:34;96922.00;;;25.39;100.00
20115;BME280;10218;42.874;25.320;2023-07-30T06:19:02;96923.09;;;25.53;100.00
20115;BME280;10218;42.874;25.320;2023-07-30T06:21:29;96920.13;;;25.80;100.00
20115;BME280;10218;42.874;25.320;2023-07-30T06:23:56;96922.56;;;25.66;100.00
20115;BME280;10218;42.874;25.320;2023-07-30T06:26:23;96920.34;;;26.29;100.00
20115;BME280;10218;42.874;25.320;2023-07-30T06:28:50;96926.00;;;26.53;95.83
20115;BME280;10218;42.874;25.320;2023-07-30T06:31:17;96919.59;;;26.88;92.52
20115;BME280;10218;42.874;25.320;2023-07-30T06:33:44;96912.31;;;27.17;88.86
20115;BME280;10218;42.874;25.320;2023-07-30T06:36:12;96914.16;;;26.72;91.71
20115;BME280;10218;42.874;25.320;2023-07-30T06:38:38;96911.94;;;26.79;93.35
20115;BME280;10218;42.874;25.320;2023-07-30T06:41:06;96910.31;;;27.28;89.40
20115;BME280;10218;42.874;25.320;2023-07-30T06:43:33;96910.75;;;27.01;88.62
20115;BME280;10218;42.874;25.320;2023-07-30T06:46:00;96916.47;;;27.48;86.86
20115;BME280;10218;42.874;25.320;2023-07-30T06:48:28;96909.41;;;26.93;88.29
20115;BME280;10218;42.874;25.320;2023-07-30T06:50:54;96914.13;;;27.71;86.12
20115;BME280;10218;42.874;25.320;2023-07-30T06:53:21;96914.31;;;27.79;80.79
20115;BME280;10218;42.874;25.320;2023-07-30T06:55:49;96910.06;;;27.97;80.57
20115;BME280;10218;42.874;25.320;2023-07-30T06:58:16;96917.66;;;27.37;88.86
20115;BME280;10218;42.874;25.320;2023-07-30T07:00:43;96898.37;;;28.63;79.19
20115;BME280;10218;42.874;25.320;2023-07-30T07:03:10;96904.13;;;29.09;70.64
20115;BME280;10218;42.874;25.320;2023-07-30T07:05:37;96900.03;;;29.25;69.92
20115;BME280;10218;42.874;25.320;2023-07-30T07:08:04;96899.34;;;28.96;69.04
20115;BME280;10218;42.874;25.320;2023-07-30T07:10:31;96891.47;;;29.08;65.68
20115;BME280;10218;42.874;25.320;2023-07-30T07:12:58;96896.59;;;29.52;65.01
20115;BME280;10218;42.874;25.320;2023-07-30T07:15:25;96889.94;;;29.20;64.60
20115;BME280;10218;42.874;25.320;2023-07-30T07:17:52;96887.41;;;29.43;62.92
20115;BME280;10218;42.874;25.320;2023-07-30T07:20:19;96888.38;;;29.84;60.76
20115;BME280;10218;42.874;25.320;2023-07-30T07:22:46;96891.34;;;29.37;61.28
20115;BME280;10218;42.874;25.320;2023-07-30T07:25:14;96889.09;;;28.59;63.50
20115;BME280;10218;42.874;25.320;2023-07-30T07:27:41;96882.19;;;29.22;59.88
20115;BME280;10218;42.874;25.320;2023-07-30T07:30:08;96878.31;;;29.61;57.71
20115;BME280;10218;42.874;25.320;2023-07-30T07:32:36;96891.53;;;30.10;57.56
20115;BME280;10218;42.874;25.320;2023-07-30T07:35:05;96888.09;;;29.67;55.16
20115;BME280;10218;42.874;25.320;2023-07-30T07:37:33;96879.91;;;30.27;55.12
20115;BME280;10218;42.874;25.320;2023-07-30T07:40:00;96883.16;;;30.15;51.58
20115;BME280;10218;42.874;25.320;2023-07-30T07:42:27;96889.13;;;30.77;50.69
20115;BME280;10218;42.874;25.320;2023-07-30T07:44:54;96880.94;;;30.17;50.37
20115;BME280;10218;42.874;25.320;2023-07-30T07:47:22;96884.00;;;30.97;50.24
20115;BME280;10218;42.874;25.320;2023-07-30T07:49:49;96883.47;;;30.95;49.92
20115;BME280;10218;42.874;25.320;2023-07-30T07:52:16;96886.84;;;31.06;46.24
20115;BME280;10218;42.874;25.320;2023-07-30T07:54:44;96887.50;;;30.62;47.66
20115;BME280;10218;42.874;25.320;2023-07-30T07:57:12;96882.03;;;30.16;46.33
20115;BME280;10218;42.874;25.320;2023-07-30T07:59:39;96888.09;;;30.32;46.13
20115;BME280;10218;42.874;25.320;2023-07-30T08:02:06;96876.56;;;30.71;46.26
20115;BME280;10218;42.874;25.320;2023-07-30T08:04:33;96877.56;;;31.38;45.93
20115;BME280;10218;42.874;25.320;2023-07-30T08:07:00;96870.00;;;31.30;45.65
20115;BME280;10218;42.874;25.320;2023-07-30T08:09:30;96876.44;;;31.39;45.09
20115;BME280;10218;42.874;25.320;2023-07-30T08:11:59;96874.16;;;32.08;43.52
20115;BME280;10218;42.874;25.320;2023-07-30T08:14:26;96866.13;;;30.81;46.15
20115;BME280;10218;42.874;25.320;2023-07-30T08:16:53;96868.69;;;31.63;45.96
20115;BME280;10218;42.874;25.320;2023-07-30T08:19:20;96864.94;;;31.59;45.70
20115;BME280;10218;42.874;25.320;2023-07-30T08:21:47;96865.44;;;30.62;48.65
20115;BME280;10218;42.874;25.320;2023-07-30T08:24:14;96858.78;;;30.77;48.08
20115;BME280;10218;42.874;25.320;2023-07-30T08:26:42;96862.84;;;30.79;47.53
20115;BME280;10218;42.874;25.320;2023-07-30T08:29:09;96870.56;;;32.30;45.50
20115;BME280;10218;42.874;25.320;2023-07-30T08:31:37;96863.72;;;32.27;44.51
20115;BME280;10218;42.874;25.320;2023-07-30T08:34:04;96865.88;;;32.08;45.02
20115;BME280;10218;42.874;25.320;2023-07-30T08:36:31;96863.50;;;32.54;43.36
20115;BME280;10218;42.874;25.320;2023-07-30T08:38:58;96856.34;;;32.14;42.10
20115;BME280;10218;42.874;25.320;2023-07-30T08:41:25;96852.25;;;31.58;44.08
20115;BME280;10218;42.874;25.320;2023-07-30T08:43:52;96854.03;;;32.47;42.14
20115;BME280;10218;42.874;25.320;2023-07-30T08:46:19;96856.41;;;31.56;42.10
20115;BME280;10218;42.874;25.320;2023-07-30T08:48:47;96858.50;;;31.95;40.88
20115;BME280;10218;42.874;25.320;2023-07-30T08:51:15;96851.38;;;32.02;41.59
20115;BME280;10218;42.874;25.320;2023-07-30T08:53:43;96843.13;;;32.98;42.25
20115;BME280;10218;42.874;25.320;2023-07-30T08:56:11;96842.12;;;32.38;40.27
20115;BME280;10218;42.874;25.320;2023-07-30T08:58:38;96838.87;;;32.84;37.86
20115;BME280;10218;42.874;25.320;2023-07-30T09:01:09;96834.28;;;32.31;39.24
20115;BME280;10218;42.874;25.320;2023-07-30T09:03:39;96831.84;;;32.78;41.26
20115;BME280;10218;42.874;25.320;2023-07-30T09:06:07;96830.56;;;32.92;37.81
20115;BME280;10218;42.874;25.320;2023-07-30T09:08:34;96831.81;;;32.60;36.98
20115;BME280;10218;42.874;25.320;2023-07-30T09:11:11;96837.31;;;34.32;37.60
20115;BME280;10218;42.874;25.320;2023-07-30T09:13:39;96835.44;;;34.83;34.21
20115;BME280;10218;42.874;25.320;2023-07-30T09:16:11;96830.53;;;34.04;35.25
20115;BME280;10218;42.874;25.320;2023-07-30T09:18:44;96825.91;;;33.70;34.60
20115;BME280;10218;42.874;25.320;2023-07-30T09:21:14;96823.84;;;34.05;33.06
20115;BME280;10218;42.874;25.320;2023-07-30T09:23:45;96826.03;;;33.74;33.24
20115;BME280;10218;42.874;25.320;2023-07-30T09:26:13;96819.69;;;33.73;33.02
20115;BME280;10218;42.874;25.320;2023-07-30T09:28:41;96822.03;;;34.09;30.82
20115;BME280;10218;42.874;25.320;2023-07-30T09:31:08;96811.12;;;34.80;29.44
20115;BME280;10218;42.874;25.320;2023-07-30T09:33:42;96812.16;;;34.38;31.29
20115;BME280;10218;42.874;25.320;2023-07-30T09:36:09;96808.69;;;34.79;30.31
20115;BME280;10218;42.874;25.320;2023-07-30T09:38:41;96804.88;;;33.78;31.26
20115;BME280;10218;42.874;25.320;2023-07-30T09:41:08;96805.50;;;33.75;30.00
20115;BME280;10218;42.874;25.320;2023-07-30T09:43:37;96805.91;;;35.29;29.97
20115;BME280;10218;42.874;25.320;2023-07-30T09:46:06;96804.97;;;35.57;30.19
20115;BME280;10218;42.874;25.320;2023-07-30T09:48:34;96798.94;;;36.46;27.83
20115;BME280;10218;42.874;25.320;2023-07-30T09:51:03;96800.25;;;35.37;29.36
20115;BME280;10218;42.874;25.320;2023-07-30T09:53:32;96798.88;;;36.09;29.25
20115;BME280;10218;42.874;25.320;2023-07-30T09:56:03;96805.25;;;35.44;28.88
20115;BME280;10218;42.874;25.320;2023-07-30T09:58:30;96796.75;;;34.19;30.53
20115;BME280;10218;42.874;25.320;2023-07-30T10:00:58;96797.34;;;35.13;29.70
20115;BME280;10218;42.874;25.320;2023-07-30T10:03:27;96786.25;;;34.63;29.66
20115;BME280;10218;42.874;25.320;2023-07-30T10:06:02;96787.09;;;34.55;29.57
20115;BME280;10218;42.874;25.320;2023-07-30T10:08:34;96767.84;;;34.58;29.67
20115;BME280;10218;42.874;25.320;2023-07-30T10:11:07;96782.31;;;34.64;30.71
20115;BME280;10218;42.874;25.320;2023-07-30T10:13:36;96772.47;;;35.16;29.65
20115;BME280;10218;42.874;25.320;2023-07-30T10:16:09;96772.38;;;36.24;29.06
20115;BME280;10218;42.874;25.320;2023-07-30T10:18:41;96774.16;;;35.83;28.81
20115;BME280;10218;42.874;25.320;2023-07-30T10:21:10;96777.91;;;35.34;29.57
20115;BME280;10218;42.874;25.320;2023-07-30T10:23:50;96769.41;;;35.84;29.21
20115;BME280;10218;42.874;25.320;2023-07-30T10:26:30;96774.59;;;35.73;29.54
20115;BME280;10218;42.874;25.320;2023-07-30T10:29:17;96764.44;;;34.53;30.75
20115;BME280;10218;42.874;25.320;2023-07-30T10:31:50;96768.84;;;35.90;30.02
20115;BME280;10218;42.874;25.320;2023-07-30T10:34:19;96758.22;;;36.77;28.96
20115;BME280;10218;42.874;25.320;2023-07-30T10:36:50;96763.50;;;35.97;29.63
20115;BME280;10218;42.874;25.320;2023-07-30T10:39:19;96753.53;;;34.77;30.97
20115;BME280;10218;42.874;25.320;2023-07-30T10:41:53;96767.63;;;35.67;30.57
20115;BME280;10218;42.874;25.320;2023-07-30T10:44:28;96754.50;;;36.85;29.66
20115;BME280;10218;42.874;25.320;2023-07-30T10:46:59;96753.37;;;37.42;28.97
20115;BME280;10218;42.874;25.320;2023-07-30T10:49:26;96753.75;;;37.13;28.23
20115;BME280;10218;42.874;25.320;2023-07-30T10:51:55;96751.53;;;36.42;29.93
20115;BME280;10218;42.874;25.320;2023-07-30T10:54:23;96746.09;;;37.38;28.35
20115;BME280;10218;42.874;25.320;2023-07-30T10:56:51;96745.25;;;37.21;27.61
20115;BME280;10218;42.874;25.320;2023-07-30T10:59:19;96746.87;;;36.70;28.01
20115;BME280;10218;42.874;25.320;2023-07-30T11:01:46;96738.03;;;36.68;29.79
20115;BME280;10218;42.874;25.320;2023-07-30T11:04:16;96743.34;;;37.53;27.92
20115;BME280;10218;42.874;25.320;2023-07-30T11:06:49;96741.06;;;36.63;28.05
20115;BME280;10218;42.874;25.320;2023-07-30T11:09:20;96738.72;;;37.45;28.20
20115;BME280;10218;42.874;25.320;2023-07-30T11:11:48;96747.84;;;37.30;26.73
20115;BME280;10218;42.874;25.320;2023-07-30T11:14:17;96739.78;;;36.00;28.25
20115;BME280;10218;42.874;25.320;2023-07-30T11:16:52;96743.06;;;35.15;29.49
20115;BME280;10218;42.874;25.320;2023-07-30T11:19:20;96732.06;;;35.60;29.38
20115;BME280;10218;42.874;25.320;2023-07-30T11:21:48;96725.25;;;36.92;30.58
20115;BME280;10218;42.874;25.320;2023-07-30T11:24:17;96724.16;;;36.20;29.11
20115;BME280;10218;42.874;25.320;2023-07-30T11:26:46;96723.94;;;36.37;29.66
20115;BME280;10218;42.874;25.320;2023-07-30T11:29:23;96718.03;;;37.58;27.63
20115;BME280;10218;42.874;25.320;2023-07-30T11:31:50;96728.50;;;35.72;28.79
20115;BME280;10218;42.874;25.320;2023-07-30T11:34:17;96718.09;;;36.54;29.28
20115;BME280;10218;42.874;25.320;2023-07-30T11:36:45;96715.75;;;37.20;28.26
20115;BME280;10218;42.874;25.320;2023-07-30T11:39:13;96707.44;;;36.08;29.41
20115;BME280;10218;42.874;25.320;2023-07-30T11:41:40;96715.66;;;38.04;27.66
20115;BME280;10218;42.874;25.320;2023-07-30T11:44:09;96713.25;;;35.90;29.18
20115;BME280;10218;42.874;25.320;2023-07-30T11:46:56;96703.84;;;37.63;27.62
20115;BME280;10218;42.874;25.320;2023-07-30T11:49:23;96706.25;;;38.43;27.96
20115;BME280;10218;42.874;25.320;2023-07-30T11:51:50;96701.94;;;38.30;28.06
20115;BME280;10218;42.874;25.320;2023-07-30T11:54:20;96692.59;;;38.73;27.99
20115;BME280;10218;42.874;25.320;2023-07-30T11:56:53;96696.97;;;38.90;26.20
20115;BME280;10218;42.874;25.320;2023-07-30T11:59:21;96687.94;;;37.08;29.57
20115;BME280;10218;42.874;25.320;2023-07-30T12:01:48;96687.69;;;36.73;28.62
20115;BME280;10218;42.874;25.320;2023-07-30T12:04:16;96683.69;;;36.10;29.19
20115;BME280;10218;42.874;25.320;2023-07-30T12:06:47;96669.78;;;36.34;28.75
20115;BME280;10218;42.874;25.320;2023-07-30T12:09:19;96675.34;;;35.29;29.82
20115;BME280;10218;42.874;25.320;2023-07-30T12:12:01;96668.31;;;36.25;28.71
20115;BME280;10218;42.874;25.320;2023-07-30T12:17:11;96672.38;;;36.79;28.30
20115;BME280;10218;42.874;25.320;2023-07-30T12:19:39;96662.41;;;37.06;29.08
20115;BME280;10218;42.874;25.320;2023-07-30T12:22:07;96659.50;;;36.75;29.39
20115;BME280;10218;42.874;25.320;2023-07-30T12:24:34;96660.81;;;37.96;27.87
20115;BME280;10218;42.874;25.320;2023-07-30T12:27:01;96653.94;;;36.23;29.02
20115;BME280;10218;42.874;25.320;2023-07-30T12:29:28;96656.06;;;36.94;28.16
20115;BME280;10218;42.874;25.320;2023-07-30T12:31:55;96655.91;;;37.89;27.45
20115;BME280;10218;42.874;25.320;2023-07-30T12:34:24;96653.19;;;37.93;27.51
20115;BME280;10218;42.874;25.320;2023-07-30T12:36:51;96650.06;;;36.92;28.83
20115;BME280;10218;42.874;25.320;2023-07-30T12:39:18;96644.50;;;36.52;30.77
20115;BME280;10218;42.874;25.320;2023-07-30T12:41:45;96646.91;;;38.46;27.73
20115;BME280;10218;42.874;25.320;2023-07-30T12:44:12;96639.44;;;38.00;27.49
20115;BME280;10218;42.874;25.320;2023-07-30T12:46:39;96635.72;;;37.96;28.20
20115;BME280;10218;42.874;25.320;2023-07-30T12:49:06;96635.19;;;37.75;28.24
20115;BME280;10218;42.874;25.320;2023-07-30T12:51:33;96631.87;;;38.51;27.92